sensor_id;sensor_type;location;lat;lon;timestamp;pressure;altitude;pressure_sealevel;temperature;humidity
74798;BME280;63326;45.088;7.658;2024-01-25T00:00:53;99468.81;;;-1.47;100.00
74798;BME280;63326;45.088;7.658;2024-01-25T00:03:21;99525.56;;;-1.13;100.00
74798;BME280;63326;45.088;7.658;2024-01-25T00:05:48;99518.06;;;-1.19;100.00
74798;BME280;63326;45.088;7.658;2024-01-25T00:08:16;99483.97;;;-1.37;100.00
74798;BME280;63326;45.088;7.658;2024-01-25T00:10:44;99466.19;;;-1.47;100.00
74798;BME280;63326;45.088;7.658;2024-01-25T00:13:11;99519.53;;;-1.15;100.00
74798;BME280;63326;45.088;7.658;2024-01-25T00:15:41;99480.38;;;-1.36;100.00
74798;BME280;63326;45.088;7.658;2024-01-25T00:18:08;99480.28;;;-1.34;100.00
74798;BME280;63326;45.088;7.658;2024-01-25T00:20:36;99479.34;;;-1.33;100.00
74798;BME280;63326;45.088;7.658;2024-01-25T00:23:06;99518.63;;;-1.00;100.00
74798;BME280;63326;45.088;7.658;2024-01-25T00:25:38;99463.63;;;-1.49;100.00
74798;BME280;63326;45.088;7.658;2024-01-25T00:28:05;99469.06;;;-1.66;100.00
74798;BME280;63326;45.088;7.658;2024-01-25T00:30:33;99554.75;;;-1.02;100.00
74798;BME280;63326;45.088;7.658;2024-01-25T00:33:10;99504.09;;;-1.50;100.00
74798;BME280;63326;45.088;7.658;2024-01-25T00:36:15;99463.78;;;-1.80;100.00
74798;BME280;63326;45.088;7.658;2024-01-25T00:39:10;99517.53;;;-1.54;100.00
74798;BME280;63326;45.088;7.658;2024-01-25T00:42:04;99397.41;;;-2.16;100.00
74798;BME280;63326;45.088;7.658;2024-01-25T00:44:38;99389.81;;;-2.20;100.00
74798;BME280;63326;45.088;7.658;2024-01-25T00:47:27;99383.50;;;-2.32;100.00
74798;BME280;63326;45.088;7.658;2024-01-25T00:50:57;99528.47;;;-1.32;100.00
74798;BME280;63326;45.088;7.658;2024-01-25T00:53:31;99405.81;;;-2.09;100.00
74798;BME280;63326;45.088;7.658;2024-01-25T00:55:59;99452.13;;;-1.76;100.00
74798;BME280;63326;45.088;7.658;2024-01-25T00:58:29;99440.56;;;-1.74;100.00
74798;BME280;63326;45.088;7.658;2024-01-25T01:01:08;99358.72;;;-2.43;100.00
74798;BME280;63326;45.088;7.658;2024-01-25T01:03:39;99407.53;;;-2.24;100.00
74798;BME280;63326;45.088;7.658;2024-01-25T01:06:26;99444.06;;;-2.03;100.00
74798;BME280;63326;45.088;7.658;2024-01-25T01:09:01;99466.03;;;-1.74;100.00
74798;BME280;63326;45.088;7.658;2024-01-25T01:11:48;99441.19;;;-1.84;100.00
74798;BME280;63326;45.088;7.658;2024-01-25T01:14:35;99407.41;;;-2.06;100.00
74798;BME280;63326;45.088;7.658;2024-01-25T01:17:11;99372.03;;;-2.31;100.00
74798;BME280;63326;45.088;7.658;2024-01-25T01:20:01;99403.06;;;-2.22;100.00
74798;BME280;63326;45.088;7.658;2024-01-25T01:22:43;99414.94;;;-2.00;100.00
74798;BME280;63326;45.088;7.658;2024-01-25T01:25:38;99352.56;;;-2.28;100.00
74798;BME280;63326;45.088;7.658;2024-01-25T01:31:19;99421.16;;;-2.01;100.00
74798;BME280;63326;45.088;7.658;2024-01-25T01:33:47;99356.81;;;-2.26;100.00
74798;BME280;63326;45.088;7.658;2024-01-25T01:39:46;99505.88;;;-1.36;100.00
74798;BME280;63326;45.088;7.658;2024-01-25T01:46:35;99428.84;;;-1.98;100.00
74798;BME280;63326;45.088;7.658;2024-01-25T01:49:42;99447.38;;;-2.00;100.00
74798;BME280;63326;45.088;7.658;2024-01-25T01:52:11;99454.91;;;-1.94;100.00
74798;BME280;63326;45.088;7.658;2024-01-25T01:54:41;99427.81;;;-2.10;100.00
74798;BME280;63326;45.088;7.658;2024-01-25T01:57:11;99429.72;;;-1.98;100.00
74798;BME280;63326;45.088;7.658;2024-01-25T01:59:41;99460.69;;;-2.03;100.00
74798;BME280;63326;45.088;7.658;2024-01-25T02:02:11;99441.13;;;-2.13;100.00
74798;BME280;63326;45.088;7.658;2024-01-25T02:04:38;99438.94;;;-1.91;100.00
74798;BME280;63326;45.088;7.658;2024-01-25T02:07:05;99388.78;;;-2.18;100.00
74798;BME280;63326;45.088;7.658;2024-01-25T02:09:33;99434.63;;;-1.92;100.00
74798;BME280;63326;45.088;7.658;2024-01-25T02:12:01;99452.47;;;-1.82;100.00
74798;BME280;63326;45.088;7.658;2024-01-25T02:14:28;99453.63;;;-1.72;100.00
74798;BME280;63326;45.088;7.658;2024-01-25T02:16:55;99403.19;;;-1.95;100.00
74798;BME280;63326;45.088;7.658;2024-01-25T02:19:22;99432.16;;;-1.95;100.00
74798;BME280;63326;45.088;7.658;2024-01-25T02:21:51;99403.72;;;-2.04;100.00
74798;BME280;63326;45.088;7.658;2024-01-25T02:24:20;99451.31;;;-1.93;100.00
74798;BME280;63326;45.088;7.658;2024-01-25T02:26:47;99489.47;;;-1.70;100.00
74798;BME280;63326;45.088;7.658;2024-01-25T02:29:14;99425.72;;;-2.05;100.00
74798;BME280;63326;45.088;7.658;2024-01-25T02:31:41;99485.81;;;-1.67;100.00
74798;BME280;63326;45.088;7.658;2024-01-25T02:34:08;99441.28;;;-1.72;100.00
74798;BME280;63326;45.088;7.658;2024-01-25T02:36:35;99406.56;;;-2.07;100.00
74798;BME280;63326;45.088;7.658;2024-01-25T02:39:01;99396.75;;;-2.19;100.00
74798;BME280;63326;45.088;7.658;2024-01-25T02:41:29;99484.31;;;-1.71;100.00
74798;BME280;63326;45.088;7.658;2024-01-25T02:43:57;99427.13;;;-2.13;100.00
74798;BME280;63326;45.088;7.658;2024-01-25T02:46:24;99409.19;;;-2.37;100.00
74798;BME280;63326;45.088;7.658;2024-01-25T02:48:51;99488.00;;;-1.60;100.00
74798;BME280;63326;45.088;7.658;2024-01-25T02:51:17;99397.50;;;-2.17;100.00
74798;BME280;63326;45.088;7.658;2024-01-25T02:53:44;99428.53;;;-2.22;100.00
74798;BME280;63326;45.088;7.658;2024-01-25T02:56:11;99444.47;;;-2.25;100.00
74798;BME280;63326;45.088;7.658;2024-01-25T02:58:38;99450.31;;;-2.20;100.00
74798;BME280;63326;45.088;7.658;2024-01-25T03:01:05;99411.63;;;-2.34;100.00
74798;BME280;63326;45.088;7.658;2024-01-25T03:03:32;99411.38;;;-2.29;100.00
74798;BME280;63326;45.088;7.658;2024-01-25T03:05:59;99394.78;;;-2.46;100.00
74798;BME280;63326;45.088;7.658;2024-01-25T03:08:29;99376.78;;;-2.67;100.00
74798;BME280;63326;45.088;7.658;2024-01-25T03:10:56;99404.75;;;-2.51;100.00
74798;BME280;63326;45.088;7.658;2024-01-25T03:13:23;99395.91;;;-2.50;100.00
74798;BME280;63326;45.088;7.658;2024-01-25T03:15:50;99402.78;;;-2.17;100.00
74798;BME280;63326;45.088;7.658;2024-01-25T03:18:17;99424.56;;;-2.15;100.00
74798;BME280;63326;45.088;7.658;2024-01-25T03:20:44;99480.75;;;-2.00;100.00
74798;BME280;63326;45.088;7.658;2024-01-25T03:23:11;99386.16;;;-2.48;100.00
74798;BME280;63326;45.088;7.658;2024-01-25T03:25:37;99434.53;;;-2.20;100.00
74798;BME280;63326;45.088;7.658;2024-01-25T03:28:04;99457.63;;;-2.25;100.00
74798;BME280;63326;45.088;7.658;2024-01-25T03:30:36;99420.94;;;-2.42;100.00
74798;BME280;63326;45.088;7.658;2024-01-25T03:33:03;99473.00;;;-1.73;100.00
74798;BME280;63326;45.088;7.658;2024-01-25T03:35:30;99424.13;;;-2.07;100.00
74798;BME280;63326;45.088;7.658;2024-01-25T03:37:57;99477.75;;;-1.21;100.00
74798;BME280;63326;45.088;7.658;2024-01-25T03:40:27;99315.34;;;-2.51;100.00
74798;BME280;63326;45.088;7.658;2024-01-25T03:43:07;99329.34;;;-2.36;100.00
74798;BME280;63326;45.088;7.658;2024-01-25T03:45:46;99326.81;;;-2.67;100.00
74798;BME280;63326;45.088;7.658;2024-01-25T03:48:19;99457.91;;;-2.00;100.00
74798;BME280;63326;45.088;7.658;2024-01-25T03:50:46;99438.22;;;-2.08;100.00
74798;BME280;63326;45.088;7.658;2024-01-25T03:53:13;99382.97;;;-2.53;100.00
74798;BME280;63326;45.088;7.658;2024-01-25T03:55:50;99377.72;;;-2.38;100.00
74798;BME280;63326;45.088;7.658;2024-01-25T03:58:20;99433.31;;;-2.14;100.00
74798;BME280;63326;45.088;7.658;2024-01-25T04:00:49;99337.97;;;-2.78;100.00
74798;BME280;63326;45.088;7.658;2024-01-25T04:03:19;99250.25;;;-3.21;100.00
74798;BME280;63326;45.088;7.658;2024-01-25T04:05:50;99320.28;;;-2.90;100.00
74798;BME280;63326;45.088;7.658;2024-01-25T04:08:20;99326.19;;;-2.87;100.00
74798;BME280;63326;45.088;7.658;2024-01-25T04:10:54;99380.66;;;-2.59;100.00
74798;BME280;63326;45.088;7.658;2024-01-25T04:13:24;99367.19;;;-2.68;100.00
74798;BME280;63326;45.088;7.658;2024-01-25T04:15:51;99349.84;;;-2.87;100.00
74798;BME280;63326;45.088;7.658;2024-01-25T04:18:20;99475.59;;;-2.18;100.00
74798;BME280;63326;45.088;7.658;2024-01-25T04:20:51;99329.69;;;-3.18;100.00
74798;BME280;63326;45.088;7.658;2024-01-25T04:23:18;99435.47;;;-2.67;100.00
74798;BME280;63326;45.088;7.658;2024-01-25T04:25:50;99340.53;;;-3.08;100.00
74798;BME280;63326;45.088;7.658;2024-01-25T04:28:23;99379.03;;;-2.91;100.00
74798;BME280;63326;45.088;7.658;2024-01-25T04:30:59;99377.63;;;-2.67;100.00
74798;BME280;63326;45.088;7.658;2024-01-25T04:33:29;99281.06;;;-3.25;100.00
74798;BME280;63326;45.088;7.658;2024-01-25T04:36:00;99375.19;;;-2.70;100.00
74798;BME280;63326;45.088;7.658;2024-01-25T04:38:27;99317.84;;;-3.09;100.00
74798;BME280;63326;45.088;7.658;2024-01-25T04:41:06;99359.41;;;-2.70;100.00
74798;BME280;63326;45.088;7.658;2024-01-25T04:43:47;99400.13;;;-2.31;100.00
74798;BME280;63326;45.088;7.658;2024-01-25T04:46:15;99379.91;;;-2.61;100.00
74798;BME280;63326;45.088;7.658;2024-01-25T04:48:47;99324.78;;;-2.92;100.00
74798;BME280;63326;45.088;7.658;2024-01-25T04:51:23;99341.03;;;-2.56;100.00
74798;BME280;63326;45.088;7.658;2024-01-25T04:53:50;99346.56;;;-2.60;100.00
74798;BME280;63326;45.088;7.658;2024-01-25T04:56:33;99351.84;;;-2.76;100.00
74798;BME280;63326;45.088;7.658;2024-01-25T04:59:00;99394.56;;;-2.57;100.00
74798;BME280;63326;45.088;7.658;2024-01-25T05:01:27;99416.06;;;-2.80;100.00
74798;BME280;63326;45.088;7.658;2024-01-25T05:03:54;99431.41;;;-2.72;100.00
74798;BME280;63326;45.088;7.658;2024-01-25T05:06:21;99411.41;;;-3.07;100.00
74798;BME280;63326;45.088;7.658;2024-01-25T05:08:48;99333.34;;;-3.52;100.00
74798;BME280;63326;45.088;7.658;2024-01-25T05:11:17;99385.13;;;-3.22;100.00
74798;BME280;63326;45.088;7.658;2024-01-25T05:13:45;99400.72;;;-3.04;100.00
74798;BME280;63326;45.088;7.658;2024-01-25T05:16:12;99339.38;;;-3.34;100.00
74798;BME280;63326;45.088;7.658;2024-01-25T05:18:47;99385.13;;;-3.07;100.00
74798;BME280;63326;45.088;7.658;2024-01-25T05:21:20;99312.34;;;-3.52;100.00
74798;BME280;63326;45.088;7.658;2024-01-25T05:24:19;99348.66;;;-2.97;100.00
74798;BME280;63326;45.088;7.658;2024-01-25T05:27:01;99344.66;;;-2.72;100.00
74798;BME280;63326;45.088;7.658;2024-01-25T05:29:30;99345.88;;;-2.64;100.00
74798;BME280;63326;45.088;7.658;2024-01-25T05:31:57;99372.66;;;-2.41;100.00
74798;BME280;63326;45.088;7.658;2024-01-25T05:34:24;99407.75;;;-2.12;100.00
74798;BME280;63326;45.088;7.658;2024-01-25T05:36:51;99464.34;;;-1.75;100.00
74798;BME280;63326;45.088;7.658;2024-01-25T05:39:18;99469.59;;;-1.90;100.00
74798;BME280;63326;45.088;7.658;2024-01-25T05:41:45;99422.25;;;-2.05;100.00
74798;BME280;63326;45.088;7.658;2024-01-25T05:44:12;99459.22;;;-1.93;100.00
74798;BME280;63326;45.088;7.658;2024-01-25T05:46:39;99403.19;;;-2.39;100.00
74798;BME280;63326;45.088;7.658;2024-01-25T05:49:07;99476.72;;;-1.92;100.00
74798;BME280;63326;45.088;7.658;2024-01-25T05:51:34;99358.44;;;-2.53;100.00
74798;BME280;63326;45.088;7.658;2024-01-25T05:54:02;99421.78;;;-2.42;100.00
74798;BME280;63326;45.088;7.658;2024-01-25T05:56:29;99456.78;;;-2.26;100.00
74798;BME280;63326;45.088;7.658;2024-01-25T05:58:56;99466.53;;;-2.28;100.00
74798;BME280;63326;45.088;7.658;2024-01-25T06:01:23;99404.34;;;-2.75;100.00
74798;BME280;63326;45.088;7.658;2024-01-25T06:03:50;99432.22;;;-2.56;100.00
74798;BME280;63326;45.088;7.658;2024-01-25T06:06:17;99428.09;;;-2.60;100.00
74798;BME280;63326;45.088;7.658;2024-01-25T06:08:44;99401.56;;;-2.71;100.00
74798;BME280;63326;45.088;7.658;2024-01-25T06:11:20;99477.16;;;-2.29;100.00
74798;BME280;63326;45.088;7.658;2024-01-25T06:13:47;99383.25;;;-3.05;100.00
74798;BME280;63326;45.088;7.658;2024-01-25T06:16:14;99439.53;;;-2.77;100.00
74798;BME280;63326;45.088;7.658;2024-01-25T06:18:41;99433.25;;;-2.75;100.00
74798;BME280;63326;45.088;7.658;2024-01-25T06:21:08;99446.31;;;-2.41;100.00
74798;BME280;63326;45.088;7.658;2024-01-25T06:23:35;99481.06;;;-2.21;100.00
74798;BME280;63326;45.088;7.658;2024-01-25T06:26:02;99421.78;;;-2.58;100.00
74798;BME280;63326;45.088;7.658;2024-01-25T06:28:31;99484.94;;;-2.12;100.00
74798;BME280;63326;45.088;7.658;2024-01-25T06:31:01;99468.66;;;-2.34;100.00
74798;BME280;63326;45.088;7.658;2024-01-25T06:33:28;99512.50;;;-1.73;100.00
74798;BME280;63326;45.088;7.658;2024-01-25T06:35:56;99473.81;;;-1.87;100.00
74798;BME280;63326;45.088;7.658;2024-01-25T06:38:24;99450.88;;;-2.15;100.00
74798;BME280;63326;45.088;7.658;2024-01-25T06:40:50;99521.63;;;-1.65;100.00
74798;BME280;63326;45.088;7.658;2024-01-25T06:43:20;99437.50;;;-2.26;100.00
74798;BME280;63326;45.088;7.658;2024-01-25T06:46:00;99409.28;;;-2.38;100.00
74798;BME280;63326;45.088;7.658;2024-01-25T06:48:27;99538.16;;;-1.77;100.00
74798;BME280;63326;45.088;7.658;2024-01-25T06:50:54;99485.06;;;-1.99;100.00
74798;BME280;63326;45.088;7.658;2024-01-25T06:53:21;99528.66;;;-1.79;100.00
74798;BME280;63326;45.088;7.658;2024-01-25T06:55:48;99517.91;;;-1.91;100.00
74798;BME280;63326;45.088;7.658;2024-01-25T06:58:14;99509.91;;;-1.89;100.00
74798;BME280;63326;45.088;7.658;2024-01-25T07:00:41;99450.72;;;-2.12;100.00
74798;BME280;63326;45.088;7.658;2024-01-25T07:03:09;99479.38;;;-1.77;100.00
74798;BME280;63326;45.088;7.658;2024-01-25T07:05:36;99518.69;;;-1.16;100.00
74798;BME280;63326;45.088;7.658;2024-01-25T07:08:03;99466.81;;;-1.58;100.00
74798;BME280;63326;45.088;7.658;2024-01-25T07:10:30;99456.00;;;-1.53;100.00
74798;BME280;63326;45.088;7.658;2024-01-25T07:12:57;99501.09;;;-1.15;100.00
74798;BME280;63326;45.088;7.658;2024-01-25T07:15:24;99532.13;;;-0.63;100.00
74798;BME280;63326;45.088;7.658;2024-01-25T07:17:51;99530.16;;;-0.74;100.00
74798;BME280;63326;45.088;7.658;2024-01-25T07:20:18;99477.66;;;-1.06;100.00
74798;BME280;63326;45.088;7.658;2024-01-25T07:22:48;99474.72;;;-0.87;100.00
74798;BME280;63326;45.088;7.658;2024-01-25T07:25:15;99483.28;;;-0.42;100.00
74798;BME280;63326;45.088;7.658;2024-01-25T07:27:45;99519.44;;;0.37;100.00
74798;BME280;63326;45.088;7.658;2024-01-25T07:30:13;99516.63;;;0.65;100.00
74798;BME280;63326;45.088;7.658;2024-01-25T07:32:40;99501.25;;;1.09;100.00
74798;BME280;63326;45.088;7.658;2024-01-25T07:35:09;99531.59;;;1.78;100.00
74798;BME280;63326;45.088;7.658;2024-01-25T07:37:39;99509.34;;;2.15;100.00
74798;BME280;63326;45.088;7.658;2024-01-25T07:40:09;99531.03;;;3.02;100.00
74798;BME280;63326;45.088;7.658;2024-01-25T07:42:36;99489.16;;;3.94;100.00
74798;BME280;63326;45.088;7.658;2024-01-25T07:45:03;99473.72;;;4.40;100.00
74798;BME280;63326;45.088;7.658;2024-01-25T07:47:30;99480.38;;;5.28;100.00
74798;BME280;63326;45.088;7.658;2024-01-25T07:49:57;99519.56;;;6.35;84.01
74798;BME280;63326;45.088;7.658;2024-01-25T07:52:24;99499.19;;;6.54;83.06
74798;BME280;63326;45.088;7.658;2024-01-25T07:54:56;99524.81;;;7.03;85.45
74798;BME280;63326;45.088;7.658;2024-01-25T07:57:22;99499.13;;;7.66;83.23
74798;BME280;63326;45.088;7.658;2024-01-25T07:59:49;99460.28;;;7.72;77.19
74798;BME280;63326;45.088;7.658;2024-01-25T08:02:16;99457.75;;;8.68;70.69
74798;BME280;63326;45.088;7.658;2024-01-25T08:04:47;99521.88;;;9.73;65.88
74798;BME280;63326;45.088;7.658;2024-01-25T08:07:14;99497.28;;;9.94;67.36
74798;BME280;63326;45.088;7.658;2024-01-25T08:09:41;99485.44;;;10.37;55.87
74798;BME280;63326;45.088;7.658;2024-01-25T08:12:10;99485.28;;;10.79;57.50
74798;BME280;63326;45.088;7.658;2024-01-25T08:14:37;99465.81;;;11.33;53.24
74798;BME280;63326;45.088;7.658;2024-01-25T08:17:04;99484.88;;;11.15;55.33
74798;BME280;63326;45.088;7.658;2024-01-25T08:19:31;99475.78;;;11.94;50.94
74798;BME280;63326;45.088;7.658;2024-01-25T08:21:58;99471.59;;;12.23;48.10
74798;BME280;63326;45.088;7.658;2024-01-25T08:24:24;99482.19;;;12.47;49.21
74798;BME280;63326;45.088;7.658;2024-01-25T08:26:51;99496.41;;;13.61;47.19
74798;BME280;63326;45.088;7.658;2024-01-25T08:29:18;99526.06;;;13.90;47.60
74798;BME280;63326;45.088;7.658;2024-01-25T08:31:45;99497.00;;;14.50;43.66
74798;BME280;63326;45.088;7.658;2024-01-25T08:34:12;99515.84;;;15.35;41.85
74798;BME280;63326;45.088;7.658;2024-01-25T08:36:39;99540.06;;;15.50;40.16
74798;BME280;63326;45.088;7.658;2024-01-25T08:39:06;99546.34;;;14.95;42.05
74798;BME280;63326;45.088;7.658;2024-01-25T08:41:35;99542.44;;;16.01;39.47
74798;BME280;63326;45.088;7.658;2024-01-25T08:44:07;99533.59;;;15.79;39.56
74798;BME280;63326;45.088;7.658;2024-01-25T08:46:33;99488.53;;;14.53;41.97
74798;BME280;63326;45.088;7.658;2024-01-25T08:49:00;99464.38;;;14.94;41.85
74798;BME280;63326;45.088;7.658;2024-01-25T08:51:28;99548.66;;;16.56;38.70
74798;BME280;63326;45.088;7.658;2024-01-25T08:53:55;99493.06;;;16.06;38.98
74798;BME280;63326;45.088;7.658;2024-01-25T08:56:23;99551.41;;;16.63;39.72
74798;BME280;63326;45.088;7.658;2024-01-25T08:58:50;99515.97;;;17.30;37.43
74798;BME280;63326;45.088;7.658;2024-01-25T09:01:17;99492.81;;;15.53;40.54
74798;BME280;63326;45.088;7.658;2024-01-25T09:03:43;99531.56;;;16.55;38.21
74798;BME280;63326;45.088;7.658;2024-01-25T09:06:10;99509.44;;;17.71;37.02
74798;BME280;63326;45.088;7.658;2024-01-25T09:08:37;99507.41;;;18.43;36.01
74798;BME280;63326;45.088;7.658;2024-01-25T09:11:04;99557.78;;;18.07;36.69
74798;BME280;63326;45.088;7.658;2024-01-25T09:13:31;99518.94;;;19.26;34.27
74798;BME280;63326;45.088;7.658;2024-01-25T09:16:10;99499.75;;;18.33;35.13
74798;BME280;63326;45.088;7.658;2024-01-25T09:18:37;99496.97;;;18.71;33.22
74798;BME280;63326;45.088;7.658;2024-01-25T09:21:04;99528.94;;;19.07;33.38
74798;BME280;63326;45.088;7.658;2024-01-25T09:23:31;99525.19;;;19.52;33.30
74798;BME280;63326;45.088;7.658;2024-01-25T09:25:57;99569.31;;;20.52;31.69
74798;BME280;63326;45.088;7.658;2024-01-25T09:28:24;99524.84;;;19.41;33.34
74798;BME280;63326;45.088;7.658;2024-01-25T09:30:51;99549.88;;;19.93;32.26
74798;BME280;63326;45.088;7.658;2024-01-25T09:33:18;99567.94;;;19.51;32.95
74798;BME280;63326;45.088;7.658;2024-01-25T09:35:45;99538.16;;;20.30;31.72
74798;BME280;63326;45.088;7.658;2024-01-25T09:38:15;99543.91;;;20.81;31.07
74798;BME280;63326;45.088;7.658;2024-01-25T09:40:41;99534.72;;;20.64;31.37
74798;BME280;63326;45.088;7.658;2024-01-25T09:43:08;99546.72;;;20.75;31.16
74798;BME280;63326;45.088;7.658;2024-01-25T09:45:35;99576.47;;;20.65;32.26
74798;BME280;63326;45.088;7.658;2024-01-25T09:48:03;99579.66;;;21.57;30.04
74798;BME280;63326;45.088;7.658;2024-01-25T09:50:32;99534.81;;;20.88;30.33
74798;BME280;63326;45.088;7.658;2024-01-25T09:53:01;99532.91;;;20.88;30.56
74798;BME280;63326;45.088;7.658;2024-01-25T09:55:30;99553.88;;;21.64;29.24
74798;BME280;63326;45.088;7.658;2024-01-25T09:58:00;99536.22;;;20.48;29.89
74798;BME280;63326;45.088;7.658;2024-01-25T10:00:28;99605.91;;;20.63;30.86
74798;BME280;63326;45.088;7.658;2024-01-25T10:02:58;99557.19;;;21.20;29.75
74798;BME280;63326;45.088;7.658;2024-01-25T10:05:25;99557.00;;;21.03;29.57
74798;BME280;63326;45.088;7.658;2024-01-25T10:07:52;99606.84;;;20.20;31.97
74798;BME280;63326;45.088;7.658;2024-01-25T10:10:20;99611.25;;;20.58;31.33
74798;BME280;63326;45.088;7.658;2024-01-25T10:12:48;99514.97;;;20.20;30.50
74798;BME280;63326;45.088;7.658;2024-01-25T10:15:14;99576.09;;;20.13;31.18
74798;BME280;63326;45.088;7.658;2024-01-25T10:17:41;99558.00;;;19.82;31.73
74798;BME280;63326;45.088;7.658;2024-01-25T10:20:14;99540.25;;;19.29;32.50
74798;BME280;63326;45.088;7.658;2024-01-25T10:22:42;99548.53;;;20.03;31.10
74798;BME280;63326;45.088;7.658;2024-01-25T10:25:13;99595.66;;;20.28;31.80
74798;BME280;63326;45.088;7.658;2024-01-25T10:27:43;99567.84;;;19.64;32.38
74798;BME280;63326;45.088;7.658;2024-01-25T10:30:12;99550.69;;;19.32;32.23
74798;BME280;63326;45.088;7.658;2024-01-25T10:32:40;99528.97;;;18.44;33.70
74798;BME280;63326;45.088;7.658;2024-01-25T10:35:08;99563.50;;;19.07;32.35
74798;BME280;63326;45.088;7.658;2024-01-25T10:37:37;99573.16;;;18.71;33.66
74798;BME280;63326;45.088;7.658;2024-01-25T10:40:09;99590.50;;;19.08;33.07
74798;BME280;63326;45.088;7.658;2024-01-25T10:42:37;99564.81;;;18.73;33.13
74798;BME280;63326;45.088;7.658;2024-01-25T10:45:05;99545.63;;;18.54;33.57
74798;BME280;63326;45.088;7.658;2024-01-25T10:47:32;99475.34;;;17.75;34.75
74798;BME280;63326;45.088;7.658;2024-01-25T10:50:02;99567.50;;;18.35;34.59
74798;BME280;63326;45.088;7.658;2024-01-25T10:52:32;99564.91;;;18.53;34.08
74798;BME280;63326;45.088;7.658;2024-01-25T10:54:59;99537.13;;;18.82;33.55
74798;BME280;63326;45.088;7.658;2024-01-25T10:57:26;99555.09;;;18.83;33.06
74798;BME280;63326;45.088;7.658;2024-01-25T11:00:01;99518.91;;;18.45;33.80
74798;BME280;63326;45.088;7.658;2024-01-25T11:02:30;99480.88;;;18.38;33.91
74798;BME280;63326;45.088;7.658;2024-01-25T11:04:58;99466.69;;;18.29;33.05
74798;BME280;63326;45.088;7.658;2024-01-25T11:07:26;99513.28;;;18.40;33.34
74798;BME280;63326;45.088;7.658;2024-01-25T11:09:53;99497.53;;;18.10;33.58
74798;BME280;63326;45.088;7.658;2024-01-25T11:12:20;99534.50;;;18.24;33.57
74798;BME280;63326;45.088;7.658;2024-01-25T11:14:56;99492.78;;;18.06;32.96
74798;BME280;63326;45.088;7.658;2024-01-25T11:17:23;99516.03;;;17.95;33.70
74798;BME280;63326;45.088;7.658;2024-01-25T11:19:50;99530.06;;;17.79;34.08
74798;BME280;63326;45.088;7.658;2024-01-25T11:22:18;99515.78;;;17.12;34.79
74798;BME280;63326;45.088;7.658;2024-01-25T11:24:45;99503.25;;;16.91;35.37
74798;BME280;63326;45.088;7.658;2024-01-25T11:27:13;99512.19;;;16.65;35.83
74798;BME280;63326;45.088;7.658;2024-01-25T11:29:41;99535.63;;;16.99;35.89
74798;BME280;63326;45.088;7.658;2024-01-25T11:32:10;99497.97;;;16.56;36.25
74798;BME280;63326;45.088;7.658;2024-01-25T11:34:36;99468.53;;;16.20;36.44
74798;BME280;63326;45.088;7.658;2024-01-25T11:37:04;99473.94;;;16.07;36.81
74798;BME280;63326;45.088;7.658;2024-01-25T11:39:32;99417.19;;;15.86;36.46
74798;BME280;63326;45.088;7.658;2024-01-25T11:41:59;99527.09;;;16.21;36.87
74798;BME280;63326;45.088;7.658;2024-01-25T11:44:26;99526.34;;;15.86;37.83
74798;BME280;63326;45.088;7.658;2024-01-25T11:46:56;99478.81;;;15.42;38.15
74798;BME280;63326;45.088;7.658;2024-01-25T11:49:24;99476.09;;;15.08;38.41
74798;BME280;63326;45.088;7.658;2024-01-25T11:51:51;99517.75;;;15.13;38.92
74798;BME280;63326;45.088;7.658;2024-01-25T11:54:18;99484.41;;;14.78;39.26
74798;BME280;63326;45.088;7.658;2024-01-25T11:56:46;99426.00;;;14.35;39.36
74798;BME280;63326;45.088;7.658;2024-01-25T11:59:13;99405.59;;;13.89;39.94
74798;BME280;63326;45.088;7.658;2024-01-25T12:01:40;99421.47;;;13.99;39.73
74798;BME280;63326;45.088;7.658;2024-01-25T12:04:09;99416.34;;;14.04;39.77
74798;BME280;63326;45.088;7.658;2024-01-25T12:06:36;99406.69;;;13.95;40.06
74798;BME280;63326;45.088;7.658;2024-01-25T12:09:10;99496.81;;;14.51;40.36
74798;BME280;63326;45.088;7.658;2024-01-25T12:11:39;99493.03;;;14.46;40.30
74798;BME280;63326;45.088;7.658;2024-01-25T12:14:10;99421.59;;;13.91;40.16
74798;BME280;63326;45.088;7.658;2024-01-25T12:16:37;99466.38;;;14.21;40.08
74798;BME280;63326;45.088;7.658;2024-01-25T12:19:05;99438.31;;;14.01;39.77
74798;BME280;63326;45.088;7.658;2024-01-25T12:21:34;99450.63;;;14.04;39.77
74798;BME280;63326;45.088;7.658;2024-01-25T12:24:02;99406.59;;;13.67;39.58
74798;BME280;63326;45.088;7.658;2024-01-25T12:26:33;99498.63;;;14.23;39.84
74798;BME280;63326;45.088;7.658;2024-01-25T12:29:03;99472.22;;;14.04;39.74
74798;BME280;63326;45.088;7.658;2024-01-25T12:31:31;99399.09;;;13.62;39.79
74798;BME280;63326;45.088;7.658;2024-01-25T12:33:59;99491.28;;;14.17;39.87
74798;BME280;63326;45.088;7.658;2024-01-25T12:36:27;99458.66;;;13.97;39.62
74798;BME280;63326;45.088;7.658;2024-01-25T12:38:54;99485.28;;;14.21;39.79
74798;BME280;63326;45.088;7.658;2024-01-25T12:41:21;99443.13;;;13.84;40.65
74798;BME280;63326;45.088;7.658;2024-01-25T12:43:48;99478.78;;;14.16;40.51
74798;BME280;63326;45.088;7.658;2024-01-25T12:46:15;99414.66;;;13.82;40.94
74798;BME280;63326;45.088;7.658;2024-01-25T12:48:53;99487.75;;;14.38;40.44
74798;BME280;63326;45.088;7.658;2024-01-25T12:51:23;99416.91;;;13.99;40.98
74798;BME280;63326;45.088;7.658;2024-01-25T12:53:53;99353.00;;;13.64;40.51
74798;BME280;63326;45.088;7.658;2024-01-25T12:56:20;99376.41;;;13.78;40.53
74798;BME280;63326;45.088;7.658;2024-01-25T12:58:47;99443.03;;;14.14;40.60
74798;BME280;63326;45.088;7.658;2024-01-25T13:01:14;99463.13;;;14.26;40.77
74798;BME280;63326;45.088;7.658;2024-01-25T13:03:43;99392.59;;;13.78;40.86
74798;BME280;63326;45.088;7.658;2024-01-25T13:06:13;99357.56;;;13.63;40.46
74798;BME280;63326;45.088;7.658;2024-01-25T13:08:41;99402.56;;;13.99;40.71
74798;BME280;63326;45.088;7.658;2024-01-25T13:11:08;99402.97;;;13.96;40.78
74798;BME280;63326;45.088;7.658;2024-01-25T13:13:35;99457.25;;;14.44;40.58
74798;BME280;63326;45.088;7.658;2024-01-25T13:16:01;99468.19;;;14.36;41.06
74798;BME280;63326;45.088;7.658;2024-01-25T13:18:28;99442.84;;;14.15;41.22